PWSweather.com
Personal Weather Stations
Station Observations
KCTHAMDEN
Dunbar Hill, Hamden, CT 06514

Dunbar HillHamden, CT 06514

Lat: 41.365437, Lon: -72.956532

Elevation: 200

Station Type: Davis Vantage Pro2+

www.hamdenweather.com

High Low Average
Temperature 80.2°F26.8°F 52.1°F11.2°F 67.7°F19.8°F
Dew Point 62.8°F17.1°F 49.0°F9.4°F 56.0°F13.3°F
Winds 6.5 mph -10.5 mph - Calm Calm 1.6 mph 2.6 mph
Wind Gusts 16.0 mph25.7 mph -- 3.5 mph5.6 mph
Humidity 91% 45% 68%
Pressure 30.13 in1020.30 in 29.95 in1014.20 in -
Precipitation 0.00 in0.00 in - -
Hour Temp Dew Point Humidity Winds Wind Gusts Pressure Precip Precip Rate Daily Precip Total
12:00 AM 52.1°F11.2°C 49.0°F9.4°C 89% 0.3 mph E0.5 kmh E 1.0 mph1.6 kmh 30.04 in1017.3 mb - 0.00 in0.0 mm 0.00 in0.0 mm
12:15 AM 52.4°F11.3°C 49.8°F9.9°C 91% 0.7 mph E1.1 kmh E 2.0 mph3.2 kmh 30.05 in1017.6 mb - 0.00 in0.0 mm 0.00 in0.0 mm
12:30 AM 52.5°F11.4°C 50.0°F10.0°C 91% 0.4 mph E0.6 kmh E 2.0 mph3.2 kmh 30.05 in1017.6 mb - 0.00 in0.0 mm 0.00 in0.0 mm
12:45 AM 52.7°F11.5°C 50.1°F10.1°C 91% 0.1 mph E0.2 kmh E 1.0 mph1.6 kmh 30.06 in1017.9 mb - 0.00 in0.0 mm 0.00 in0.0 mm
01:00 AM 53.1°F11.7°C 50.2°F10.1°C 90% 0.1 mph E0.2 kmh E 1.0 mph1.6 kmh 30.06 in1017.9 mb - 0.00 in0.0 mm 0.00 in0.0 mm
01:15 AM 53.3°F11.8°C 49.8°F9.9°C 88% Calm Calm -- 30.06 in1017.9 mb - 0.00 in0.0 mm 0.00 in0.0 mm
01:30 AM 53.8°F12.1°C 50.0°F10.0°C 87% Calm Calm -- 30.06 in1017.9 mb - 0.00 in0.0 mm 0.00 in0.0 mm
01:45 AM 54.2°F12.3°C 50.1°F10.1°C 86% 0.6 mph SW1.0 kmh SW 5.0 mph8.0 kmh 30.07 in1018.3 mb - 0.00 in0.0 mm 0.00 in0.0 mm
02:00 AM 54.6°F12.6°C 50.5°F10.3°C 86% 1.1 mph SE1.8 kmh SE 2.0 mph3.2 kmh 30.07 in1018.3 mb - 0.00 in0.0 mm 0.00 in0.0 mm
02:15 AM 54.9°F12.7°C 50.8°F10.4°C 86% 0.9 mph SW1.4 kmh SW 2.0 mph3.2 kmh 30.07 in1018.3 mb - 0.00 in0.0 mm 0.00 in0.0 mm
02:30 AM 55.2°F12.9°C 50.8°F10.4°C 85% 1.4 mph WSW2.3 kmh WSW 2.0 mph3.2 kmh 30.08 in1018.6 mb - 0.00 in0.0 mm 0.00 in0.0 mm
02:45 AM 55.2°F12.9°C 50.1°F10.1°C 83% 1.2 mph WSW1.9 kmh WSW 2.0 mph3.2 kmh 30.08 in1018.6 mb - 0.00 in0.0 mm 0.00 in0.0 mm
03:00 AM 55.1°F12.8°C 49.7°F9.8°C 82% 0.7 mph WSW1.1 kmh WSW 3.0 mph4.8 kmh 30.09 in1019.0 mb - 0.00 in0.0 mm 0.00 in0.0 mm
03:15 AM 55.0°F12.8°C 50.0°F10.0°C 83% 0.5 mph WSW0.8 kmh WSW 1.0 mph1.6 kmh 30.09 in1019.0 mb - 0.00 in0.0 mm 0.00 in0.0 mm
03:30 AM 54.8°F12.7°C 49.4°F9.7°C 82% Calm Calm 1.0 mph1.6 kmh 30.09 in1019.0 mb - 0.00 in0.0 mm 0.00 in0.0 mm
03:45 AM 54.7°F12.6°C 49.3°F9.6°C 82% Calm Calm 1.0 mph1.6 kmh 30.10 in1019.3 mb - 0.00 in0.0 mm 0.00 in0.0 mm
04:00 AM 55.3°F12.9°C 49.6°F9.8°C 81% 1.1 mph WSW1.8 kmh WSW 2.0 mph3.2 kmh 30.10 in1019.3 mb - 0.00 in0.0 mm 0.00 in0.0 mm
04:15 AM 55.8°F13.2°C 50.0°F10.0°C 81% 0.2 mph WSW0.3 kmh WSW -- 30.10 in1019.3 mb - 0.00 in0.0 mm 0.00 in0.0 mm
04:30 AM 55.7°F13.2°C 49.3°F9.6°C 79% Calm Calm 1.0 mph1.6 kmh 30.11 in1019.6 mb - 0.00 in0.0 mm 0.00 in0.0 mm
04:45 AM 55.8°F13.2°C 49.0°F9.4°C 78% 0.4 mph WSW0.6 kmh WSW 1.0 mph1.6 kmh 30.11 in1019.6 mb - 0.00 in0.0 mm 0.00 in0.0 mm
05:00 AM 55.9°F13.3°C 49.1°F9.5°C 78% 0.1 mph SW0.2 kmh SW -- 30.10 in1019.3 mb - 0.00 in0.0 mm 0.00 in0.0 mm
05:15 AM 55.7°F13.2°C 49.6°F9.8°C 80% 0.4 mph SW0.6 kmh SW 2.0 mph3.2 kmh 30.11 in1019.6 mb - 0.00 in0.0 mm 0.00 in0.0 mm
05:30 AM 55.0°F12.8°C 49.3°F9.6°C 81% 0.1 mph SW0.2 kmh SW 1.0 mph1.6 kmh 30.11 in1019.6 mb - 0.00 in0.0 mm 0.00 in0.0 mm
05:45 AM 54.6°F12.6°C 49.5°F9.7°C 83% 0.3 mph SW0.5 kmh SW 1.0 mph1.6 kmh 30.11 in1019.6 mb - 0.00 in0.0 mm 0.00 in0.0 mm
06:00 AM 54.6°F12.6°C 49.9°F9.9°C 84% 0.7 mph SW1.1 kmh SW 1.0 mph1.6 kmh 30.11 in1019.6 mb - 0.00 in0.0 mm 0.00 in0.0 mm
06:15 AM 55.0°F12.8°C 50.6°F10.3°C 85% 0.3 mph WSW0.5 kmh WSW -- 30.11 in1019.6 mb - 0.00 in0.0 mm 0.00 in0.0 mm
06:30 AM 55.3°F12.9°C 51.2°F10.7°C 86% Calm Calm -- 30.12 in1020.0 mb - 0.00 in0.0 mm 0.00 in0.0 mm
06:45 AM 55.5°F13.1°C 51.1°F10.6°C 85% Calm Calm -- 30.12 in1020.0 mb - 0.00 in0.0 mm 0.00 in0.0 mm
07:00 AM 55.9°F13.3°C 52.1°F11.2°C 87% Calm Calm -- 30.12 in1020.0 mb - 0.00 in0.0 mm 0.00 in0.0 mm
07:15 AM 57.5°F14.2°C 54.3°F12.4°C 89% Calm Calm 1.0 mph1.6 kmh 30.12 in1020.0 mb - 0.00 in0.0 mm 0.00 in0.0 mm
07:30 AM 59.9°F15.5°C 55.7°F13.2°C 86% Calm Calm -- 30.12 in1020.0 mb - 0.00 in0.0 mm 0.00 in0.0 mm
07:45 AM 62.4°F16.9°C 57.2°F14.0°C 83% 1.7 mph S2.7 kmh S 2.0 mph3.2 kmh 30.12 in1020.0 mb - 0.00 in0.0 mm 0.00 in0.0 mm
08:00 AM 64.8°F18.2°C 58.8°F14.9°C 81% 0.2 mph S0.3 kmh S 2.0 mph3.2 kmh 30.13 in1020.3 mb - 0.00 in0.0 mm 0.00 in0.0 mm
08:15 AM 66.8°F19.3°C 57.8°F14.3°C 73% 1.0 mph S1.6 kmh S 2.0 mph3.2 kmh 30.13 in1020.3 mb - 0.00 in0.0 mm 0.00 in0.0 mm
08:30 AM 68.2°F20.1°C 58.4°F14.7°C 71% 0.9 mph S1.4 kmh S 1.0 mph1.6 kmh 30.13 in1020.3 mb - 0.00 in0.0 mm 0.00 in0.0 mm
08:45 AM 69.7°F20.9°C 58.2°F14.6°C 67% 1.0 mph S1.6 kmh S 3.0 mph4.8 kmh 30.13 in1020.3 mb - 0.00 in0.0 mm 0.00 in0.0 mm
09:00 AM 70.7°F21.5°C 57.1°F13.9°C 62% 0.8 mph SW1.3 kmh SW 2.0 mph3.2 kmh 30.13 in1020.3 mb - 0.00 in0.0 mm 0.00 in0.0 mm
09:15 AM 72.4°F22.4°C 59.1°F15.1°C 63% 0.8 mph SW1.3 kmh SW 2.0 mph3.2 kmh 30.12 in1020.0 mb - 0.00 in0.0 mm 0.00 in0.0 mm
09:30 AM 73.3°F22.9°C 56.7°F13.7°C 56% 1.3 mph S2.1 kmh S 1.0 mph1.6 kmh 30.12 in1020.0 mb - 0.00 in0.0 mm 0.00 in0.0 mm
09:45 AM 74.5°F23.6°C 57.8°F14.3°C 56% 1.6 mph ESE2.6 kmh ESE 2.0 mph3.2 kmh 30.11 in1019.6 mb - 0.00 in0.0 mm 0.00 in0.0 mm
10:00 AM 75.2°F24.0°C 59.4°F15.2°C 58% 1.9 mph SE3.1 kmh SE 3.0 mph4.8 kmh 30.11 in1019.6 mb - 0.00 in0.0 mm 0.00 in0.0 mm
10:15 AM 75.7°F24.3°C 56.8°F13.8°C 52% 4.0 mph SSE6.4 kmh SSE 5.0 mph8.0 kmh 30.11 in1019.6 mb - 0.00 in0.0 mm 0.00 in0.0 mm
10:30 AM 76.9°F24.9°C 58.9°F14.9°C 54% 2.1 mph SSE3.4 kmh SSE 4.0 mph6.4 kmh 30.10 in1019.3 mb - 0.00 in0.0 mm 0.00 in0.0 mm
10:45 AM 77.6°F25.3°C 57.5°F14.2°C 50% 2.2 mph SE3.5 kmh SE 4.0 mph6.4 kmh 30.10 in1019.3 mb - 0.00 in0.0 mm 0.00 in0.0 mm
11:00 AM 78.0°F25.6°C 57.8°F14.3°C 50% 3.1 mph SW5.0 kmh SW 5.0 mph8.0 kmh 30.10 in1019.3 mb - 0.00 in0.0 mm 0.00 in0.0 mm
11:15 AM 77.4°F25.2°C 57.9°F14.4°C 51% 2.4 mph SSE3.9 kmh SSE 5.0 mph8.0 kmh 30.09 in1019.0 mb - 0.00 in0.0 mm 0.00 in0.0 mm
11:30 AM 78.0°F25.6°C 56.7°F13.7°C 48% 1.4 mph S2.3 kmh S 5.0 mph8.0 kmh 30.09 in1019.0 mb - 0.00 in0.0 mm 0.00 in0.0 mm
11:45 AM 78.3°F25.7°C 57.6°F14.2°C 49% 2.2 mph S3.5 kmh S 7.0 mph11.3 kmh 30.09 in1019.0 mb - 0.00 in0.0 mm 0.00 in0.0 mm
12:00 PM 78.1°F25.6°C 57.9°F14.4°C 50% 3.2 mph SE5.1 kmh SE 10.0 mph16.1 kmh 30.09 in1019.0 mb - 0.00 in0.0 mm 0.00 in0.0 mm
12:15 PM 78.1°F25.6°C 55.1°F12.8°C 45% 2.6 mph E4.2 kmh E 7.0 mph11.3 kmh 30.08 in1018.6 mb - 0.00 in0.0 mm 0.00 in0.0 mm
12:30 PM 78.1°F25.6°C 55.0°F12.8°C 45% 2.1 mph SSE3.4 kmh SSE 7.0 mph11.3 kmh 30.07 in1018.3 mb - 0.00 in0.0 mm 0.00 in0.0 mm
12:45 PM 78.5°F25.8°C 56.0°F13.3°C 46% 3.9 mph SSE6.3 kmh SSE 6.0 mph9.7 kmh 30.07 in1018.3 mb - 0.00 in0.0 mm 0.00 in0.0 mm
01:00 PM 79.0°F26.1°C 56.4°F13.6°C 46% 5.0 mph S8.0 kmh S 14.0 mph22.5 kmh 30.06 in1017.9 mb - 0.00 in0.0 mm 0.00 in0.0 mm
01:15 PM 78.9°F26.1°C 57.5°F14.2°C 48% 4.5 mph S7.2 kmh S 7.0 mph11.3 kmh 30.05 in1017.6 mb - 0.00 in0.0 mm 0.00 in0.0 mm
01:30 PM 79.1°F26.2°C 58.3°F14.6°C 49% 6.5 mph SSW10.5 kmh SSW 16.0 mph25.7 kmh 30.04 in1017.3 mb - 0.00 in0.0 mm 0.00 in0.0 mm
01:45 PM 79.2°F26.2°C 57.8°F14.3°C 48% 1.2 mph S1.9 kmh S 2.0 mph3.2 kmh 30.04 in1017.3 mb - 0.00 in0.0 mm 0.00 in0.0 mm
02:00 PM 79.3°F26.3°C 57.9°F14.4°C 48% 3.6 mph SSW5.8 kmh SSW 5.0 mph8.0 kmh 30.03 in1016.9 mb - 0.00 in0.0 mm 0.00 in0.0 mm
02:15 PM 79.6°F26.4°C 60.5°F15.8°C 52% 3.1 mph SSW5.0 kmh SSW 6.0 mph9.7 kmh 30.02 in1016.6 mb - 0.00 in0.0 mm 0.00 in0.0 mm
02:30 PM 79.3°F26.3°C 61.2°F16.2°C 54% 3.0 mph SSE4.8 kmh SSE 4.0 mph6.4 kmh 30.01 in1016.3 mb - 0.00 in0.0 mm 0.00 in0.0 mm
02:45 PM 79.4°F26.3°C 60.8°F16.0°C 53% 2.9 mph S4.7 kmh S 5.0 mph8.0 kmh 30.01 in1016.3 mb - 0.00 in0.0 mm 0.00 in0.0 mm
03:00 PM 79.5°F26.4°C 60.3°F15.7°C 52% 4.4 mph SE7.1 kmh SE 8.0 mph12.9 kmh 30.00 in1015.9 mb - 0.00 in0.0 mm 0.00 in0.0 mm
03:15 PM 80.0°F26.7°C 62.4°F16.9°C 55% 2.2 mph SSW3.5 kmh SSW 5.0 mph8.0 kmh 30.00 in1015.9 mb - 0.00 in0.0 mm 0.00 in0.0 mm
03:30 PM 80.2°F26.8°C 61.0°F16.1°C 52% 3.6 mph SSW5.8 kmh SSW 5.0 mph8.0 kmh 29.99 in1015.6 mb - 0.00 in0.0 mm 0.00 in0.0 mm
03:45 PM 79.6°F26.4°C 61.0°F16.1°C 53% 3.8 mph S6.1 kmh S 11.0 mph17.7 kmh 29.99 in1015.6 mb - 0.00 in0.0 mm 0.00 in0.0 mm
04:00 PM 79.4°F26.3°C 62.8°F17.1°C 57% 2.4 mph SSE3.9 kmh SSE 5.0 mph8.0 kmh 29.98 in1015.2 mb - 0.00 in0.0 mm 0.00 in0.0 mm
04:15 PM 79.6°F26.4°C 62.5°F16.9°C 56% 2.5 mph S4.0 kmh S 4.0 mph6.4 kmh 29.98 in1015.2 mb - 0.00 in0.0 mm 0.00 in0.0 mm
04:30 PM 79.6°F26.4°C 62.5°F16.9°C 56% 3.2 mph ESE5.1 kmh ESE 6.0 mph9.7 kmh 29.97 in1014.9 mb - 0.00 in0.0 mm 0.00 in0.0 mm
04:45 PM 79.5°F26.4°C 61.4°F16.3°C 54% 3.1 mph S5.0 kmh S 8.0 mph12.9 kmh 29.97 in1014.9 mb - 0.00 in0.0 mm 0.00 in0.0 mm
05:00 PM 79.1°F26.2°C 61.5°F16.4°C 55% 2.1 mph SSW3.4 kmh SSW 5.0 mph8.0 kmh 29.97 in1014.9 mb - 0.00 in0.0 mm 0.00 in0.0 mm
05:15 PM 78.2°F25.7°C 60.2°F15.7°C 54% 3.9 mph S6.3 kmh S 6.0 mph9.7 kmh 29.96 in1014.6 mb - 0.00 in0.0 mm 0.00 in0.0 mm
05:30 PM 77.4°F25.2°C 60.5°F15.8°C 56% 3.7 mph SW6.0 kmh SW 7.0 mph11.3 kmh 29.96 in1014.6 mb - 0.00 in0.0 mm 0.00 in0.0 mm
05:45 PM 76.3°F24.6°C 60.0°F15.6°C 57% 2.3 mph SW3.7 kmh SW 3.0 mph4.8 kmh 29.96 in1014.6 mb - 0.00 in0.0 mm 0.00 in0.0 mm
06:00 PM 75.2°F24.0°C 58.9°F14.9°C 57% 3.5 mph S5.6 kmh S 7.0 mph11.3 kmh 29.96 in1014.6 mb - 0.00 in0.0 mm 0.00 in0.0 mm
06:15 PM 74.4°F23.6°C 59.1°F15.1°C 59% 1.4 mph S2.3 kmh S 6.0 mph9.7 kmh 29.96 in1014.6 mb - 0.00 in0.0 mm 0.00 in0.0 mm
06:30 PM 73.5°F23.1°C 58.3°F14.6°C 59% 2.6 mph SE4.2 kmh SE 7.0 mph11.3 kmh 29.96 in1014.6 mb - 0.00 in0.0 mm 0.00 in0.0 mm
06:45 PM 72.8°F22.7°C 57.6°F14.2°C 59% 1.3 mph S2.1 kmh S 4.0 mph6.4 kmh 29.96 in1014.6 mb - 0.00 in0.0 mm 0.00 in0.0 mm
07:00 PM 72.3°F22.4°C 58.1°F14.5°C 61% 1.4 mph S2.3 kmh S 3.0 mph4.8 kmh 29.96 in1014.6 mb - 0.00 in0.0 mm 0.00 in0.0 mm
07:15 PM 71.8°F22.1°C 58.5°F14.7°C 63% 2.1 mph SSW3.4 kmh SSW 3.0 mph4.8 kmh 29.97 in1014.9 mb - 0.00 in0.0 mm 0.00 in0.0 mm
07:30 PM 71.2°F21.8°C 58.0°F14.4°C 63% 5.4 mph SW8.7 kmh SW 8.0 mph12.9 kmh 29.97 in1014.9 mb - 0.00 in0.0 mm 0.00 in0.0 mm
07:45 PM 70.8°F21.6°C 58.0°F14.4°C 64% 1.9 mph SW3.1 kmh SW 4.0 mph6.4 kmh 29.97 in1014.9 mb - 0.00 in0.0 mm 0.00 in0.0 mm
08:00 PM 70.4°F21.3°C 58.1°F14.5°C 65% 2.0 mph S3.2 kmh S 4.0 mph6.4 kmh 29.97 in1014.9 mb - 0.00 in0.0 mm 0.00 in0.0 mm
08:15 PM 69.8°F21.0°C 58.3°F14.6°C 67% 2.2 mph S3.5 kmh S 3.0 mph4.8 kmh 29.97 in1014.9 mb - 0.00 in0.0 mm 0.00 in0.0 mm
08:30 PM 69.2°F20.7°C 58.6°F14.8°C 69% 1.1 mph ESE1.8 kmh ESE 1.0 mph1.6 kmh 29.97 in1014.9 mb - 0.00 in0.0 mm 0.00 in0.0 mm
08:45 PM 68.8°F20.4°C 57.8°F14.3°C 68% Calm Calm 3.0 mph4.8 kmh 29.96 in1014.6 mb - 0.00 in0.0 mm 0.00 in0.0 mm
09:00 PM 68.6°F20.3°C 58.0°F14.4°C 69% 1.6 mph SSW2.6 kmh SSW 2.0 mph3.2 kmh 29.97 in1014.9 mb - 0.00 in0.0 mm 0.00 in0.0 mm
09:15 PM 68.3°F20.2°C 58.1°F14.5°C 70% 0.5 mph SSE0.8 kmh SSE 2.0 mph3.2 kmh 29.97 in1014.9 mb - 0.00 in0.0 mm 0.00 in0.0 mm
09:30 PM 68.1°F20.1°C 58.3°F14.6°C 71% 1.4 mph SSW2.3 kmh SSW 8.0 mph12.9 kmh 29.97 in1014.9 mb - 0.00 in0.0 mm 0.00 in0.0 mm
09:45 PM 67.9°F19.9°C 58.5°F14.7°C 72% 0.6 mph SW1.0 kmh SW 3.0 mph4.8 kmh 29.97 in1014.9 mb - 0.00 in0.0 mm 0.00 in0.0 mm
10:00 PM 67.6°F19.8°C 58.7°F14.8°C 73% 0.5 mph S0.8 kmh S 5.0 mph8.0 kmh 29.96 in1014.6 mb - 0.00 in0.0 mm 0.00 in0.0 mm
10:15 PM 67.5°F19.7°C 58.5°F14.7°C 73% 1.9 mph SSE3.1 kmh SSE 5.0 mph8.0 kmh 29.96 in1014.6 mb - 0.00 in0.0 mm 0.00 in0.0 mm
10:30 PM 67.2°F19.6°C 58.6°F14.8°C 74% 1.7 mph SSE2.7 kmh SSE 4.0 mph6.4 kmh 29.97 in1014.9 mb - 0.00 in0.0 mm 0.00 in0.0 mm
10:45 PM 66.9°F19.4°C 58.7°F14.8°C 75% Calm Calm -- 29.96 in1014.6 mb - 0.00 in0.0 mm 0.00 in0.0 mm
11:00 PM 66.7°F19.3°C 59.3°F15.2°C 77% Calm Calm 1.0 mph1.6 kmh 29.95 in1014.2 mb - 0.00 in0.0 mm 0.00 in0.0 mm
11:15 PM 66.3°F19.1°C 58.9°F14.9°C 77% Calm Calm -- 29.95 in1014.2 mb - 0.00 in0.0 mm 0.00 in0.0 mm
11:30 PM 66.0°F18.9°C 58.9°F14.9°C 78% Calm Calm -- 29.95 in1014.2 mb - 0.00 in0.0 mm 0.00 in0.0 mm
11:45 PM 65.8°F18.8°C 59.1°F15.1°C 79% Calm Calm 1.0 mph1.6 kmh 29.95 in1014.2 mb - 0.00 in0.0 mm 0.00 in0.0 mm